createdAt,value
2019-06-08T00:02:27.804Z,8.48
2019-06-08T00:04:59.199Z,14.73
2019-06-08T00:07:30.417Z,13.83
2019-06-08T00:10:01.564Z,8.40
2019-06-08T00:12:32.773Z,11.33
2019-06-08T00:15:05.632Z,13.08
2019-06-08T00:17:38.949Z,9.00
2019-06-08T00:20:09.935Z,12.20
2019-06-08T00:22:41.155Z,23.42
2019-06-08T00:25:13.793Z,10.72
2019-06-08T00:27:44.935Z,9.83
2019-06-08T00:30:16.128Z,14.95
2019-06-08T00:32:47.329Z,17.55
2019-06-08T00:35:18.683Z,12.75
2019-06-08T00:37:49.893Z,13.28
2019-06-08T00:40:21.134Z,12.28
2019-06-08T00:42:52.325Z,20.82
2019-06-08T00:45:23.635Z,14.38
2019-06-08T00:47:54.957Z,21.45
2019-06-08T00:50:27.011Z,11.73
2019-06-08T00:52:58.228Z,15.32
2019-06-08T00:55:29.916Z,14.20
2019-06-08T00:58:01.200Z,11.12
2019-06-08T01:00:32.383Z,15.38
2019-06-08T01:03:03.666Z,14.80
2019-06-08T01:05:34.834Z,24.20
2019-06-08T01:08:06.127Z,20.08
2019-06-08T01:10:37.329Z,11.85
2019-06-08T01:13:08.958Z,23.77
2019-06-08T01:15:40.241Z,14.10
2019-06-08T01:18:11.553Z,15.03
2019-06-08T01:20:42.844Z,18.80
2019-06-08T01:23:14.174Z,13.10
2019-06-08T01:25:45.351Z,13.53
2019-06-08T01:28:16.670Z,20.52
2019-06-08T01:30:47.968Z,12.28
2019-06-08T01:33:20.406Z,16.02
2019-06-08T01:35:51.670Z,12.15
2019-06-08T01:38:23.027Z,17.80
2019-06-08T01:40:54.149Z,16.70
2019-06-08T01:43:25.838Z,12.80
2019-06-08T01:45:57.134Z,12.05
2019-06-08T01:48:28.442Z,16.60
2019-06-08T01:51:00.703Z,16.10
2019-06-08T01:53:33.014Z,19.10
2019-06-08T01:56:04.400Z,17.55
2019-06-08T01:58:35.903Z,23.80
2019-06-08T02:01:07.563Z,21.95
2019-06-08T02:03:38.978Z,22.17
2019-06-08T02:06:10.135Z,22.77
2019-06-08T02:08:41.460Z,20.02
2019-06-08T02:11:12.617Z,32.50
2019-06-08T02:13:43.879Z,31.45
2019-06-08T02:16:15.174Z,34.30
2019-06-08T02:18:50.880Z,30.10
2019-06-08T02:21:19.366Z,26.93
2019-06-08T02:23:50.586Z,27.02
2019-06-08T02:26:21.751Z,32.63
2019-06-08T02:28:52.951Z,35.58
2019-06-08T02:31:24.157Z,24.70
2019-06-08T02:33:55.495Z,32.73
2019-06-08T02:36:28.659Z,20.95
2019-06-08T02:39:00.527Z,31.85
2019-06-08T02:41:33.063Z,33.73
2019-06-08T02:44:05.221Z,25.90
2019-06-08T02:46:38.215Z,22.73
2019-06-08T02:49:09.428Z,22.27
2019-06-08T02:51:41.719Z,18.98
2019-06-08T02:54:13.447Z,31.50
2019-06-08T02:56:46.054Z,34.08
2019-06-08T02:59:20.291Z,34.73
2019-06-08T03:01:52.980Z,25.48
2019-06-08T03:04:26.287Z,32.10
2019-06-08T03:06:59.515Z,24.82
2019-06-08T03:09:34.632Z,33.85
2019-06-08T03:12:05.677Z,14.03
2019-06-08T03:14:39.644Z,17.27
2019-06-08T03:17:11.325Z,13.45
2019-06-08T03:19:42.885Z,16.70
2019-06-08T03:22:14.072Z,19.98
2019-06-08T03:24:45.297Z,16.55
2019-06-08T03:27:16.509Z,18.95
2019-06-08T03:29:47.717Z,15.58
2019-06-08T03:32:18.817Z,14.75
2019-06-08T03:34:55.722Z,11.80
2019-06-08T03:37:22.894Z,10.13
2019-06-08T03:39:54.125Z,10.95
2019-06-08T03:42:25.272Z,14.00
2019-06-08T03:44:56.422Z,14.98
2019-06-08T03:47:27.594Z,10.80
2019-06-08T03:49:58.796Z,13.30
2019-06-08T03:52:30.945Z,10.95
2019-06-08T03:55:02.096Z,9.10
2019-06-08T03:57:33.247Z,11.78
2019-06-08T04:00:13.338Z,5.90
2019-06-08T04:02:42.703Z,8.93
2019-06-08T04:05:14.905Z,12.35
2019-06-08T04:07:46.571Z,9.60
2019-06-08T04:10:17.853Z,10.38
2019-06-08T04:12:50.162Z,14.93
2019-06-08T04:15:21.558Z,9.10
2019-06-08T04:17:52.712Z,8.73
2019-06-08T04:20:23.935Z,9.35
2019-06-08T04:22:55.314Z,12.88
2019-06-08T04:25:26.553Z,9.05
2019-06-08T04:27:57.864Z,11.18
2019-06-08T04:30:29.094Z,14.20
2019-06-08T04:33:00.267Z,15.68
2019-06-08T04:35:31.491Z,13.32
2019-06-08T04:38:02.673Z,10.32
2019-06-08T04:40:33.874Z,9.63
2019-06-08T04:43:05.447Z,9.40
2019-06-08T04:45:38.614Z,17.87
2019-06-08T04:48:10.009Z,10.93
2019-06-08T04:50:42.917Z,13.25
2019-06-08T04:53:15.767Z,9.33
2019-06-08T04:55:47.275Z,9.80
2019-06-08T04:58:19.950Z,8.30
2019-06-08T05:00:51.215Z,12.60
2019-06-08T05:03:22.381Z,11.33
2019-06-08T05:05:53.687Z,12.03
2019-06-08T05:08:24.846Z,12.80
2019-06-08T05:10:56.051Z,8.83
2019-06-08T05:13:27.210Z,9.68
2019-06-08T05:15:58.416Z,14.38
2019-06-08T05:18:29.516Z,11.60
2019-06-08T05:21:00.745Z,9.25
2019-06-08T05:23:31.992Z,16.87
2019-06-08T05:26:03.197Z,10.85
2019-06-08T05:28:34.379Z,11.38
2019-06-08T05:31:05.597Z,11.45
2019-06-08T05:33:36.814Z,28.70
2019-06-08T05:36:08.019Z,10.35
2019-06-08T05:38:39.500Z,9.33
2019-06-08T05:41:10.726Z,12.18
2019-06-08T05:43:41.868Z,11.50
2019-06-08T05:46:12.993Z,12.07
2019-06-08T05:48:44.139Z,8.03
2019-06-08T05:51:15.331Z,11.10
2019-06-08T05:53:47.910Z,10.25
2019-06-08T05:56:19.185Z,10.50
2019-06-08T05:58:50.573Z,16.27
2019-06-08T06:01:21.748Z,9.30
2019-06-08T06:03:52.876Z,9.18
2019-06-08T06:06:24.180Z,8.85
2019-06-08T06:08:55.347Z,12.45
2019-06-08T06:11:26.569Z,11.53
2019-06-08T06:13:57.805Z,10.23
2019-06-08T06:16:29.019Z,9.50
2019-06-08T06:19:00.221Z,7.70
2019-06-08T06:21:31.430Z,7.30
2019-06-08T06:24:02.599Z,9.20
2019-06-08T06:26:33.839Z,12.20
2019-06-08T06:29:05.055Z,8.98
2019-06-08T06:31:36.262Z,9.95
2019-06-08T06:34:07.449Z,7.22
2019-06-08T06:36:38.648Z,7.08
2019-06-08T06:39:09.837Z,5.08
2019-06-08T06:41:41.874Z,7.08
2019-06-08T06:44:13.117Z,5.20
2019-06-08T06:46:44.321Z,5.83
2019-06-08T06:49:15.536Z,6.20
2019-06-08T06:51:46.827Z,10.20
2019-06-08T06:54:18.929Z,13.35
2019-06-08T06:56:50.148Z,7.40
2019-06-08T06:59:21.295Z,8.83
2019-06-08T07:01:57.264Z,8.40
2019-06-08T07:04:25.914Z,10.05
2019-06-08T07:06:57.211Z,7.03
2019-06-08T07:09:28.422Z,9.20
2019-06-08T07:11:59.649Z,6.55
2019-06-08T07:14:30.827Z,8.05
2019-06-08T07:17:02.037Z,6.50
2019-06-08T07:19:33.189Z,10.72
2019-06-08T07:22:04.428Z,9.50
2019-06-08T07:24:35.530Z,7.45
2019-06-08T07:27:07.606Z,8.53
2019-06-08T07:29:38.794Z,14.78
2019-06-08T07:32:10.017Z,6.80
2019-06-08T07:34:41.340Z,7.17
2019-06-08T07:37:12.605Z,8.95
2019-06-08T07:39:43.732Z,3.67
2019-06-08T07:42:14.930Z,10.13
2019-06-08T07:44:46.851Z,5.90
2019-06-08T07:47:18.052Z,9.43
2019-06-08T07:49:49.378Z,6.22
2019-06-08T07:52:20.623Z,7.70
2019-06-08T07:54:53.088Z,6.00
2019-06-08T07:57:24.671Z,7.17
2019-06-08T07:59:56.396Z,6.45
2019-06-08T08:02:27.729Z,8.40
2019-06-08T08:04:58.942Z,8.40
2019-06-08T08:07:30.178Z,6.30
2019-06-08T08:10:01.246Z,3.87
2019-06-08T08:12:32.526Z,7.58
2019-06-08T08:15:05.476Z,4.87
2019-06-08T08:17:39.184Z,7.53
2019-06-08T08:20:11.856Z,4.05
2019-06-08T08:22:43.089Z,9.40
2019-06-08T08:25:14.335Z,8.10
2019-06-08T08:27:47.827Z,9.03
2019-06-08T08:30:20.229Z,5.83
2019-06-08T08:32:53.287Z,4.45
2019-06-08T08:35:24.642Z,5.47
2019-06-08T08:38:00.474Z,6.47
2019-06-08T08:40:28.730Z,8.23
2019-06-08T08:43:01.594Z,5.58
2019-06-08T08:45:32.904Z,6.85
2019-06-08T08:48:20.717Z,3.37
2019-06-08T08:50:38.313Z,4.72
2019-06-08T08:53:09.611Z,8.00
2019-06-08T08:55:41.682Z,5.37
2019-06-08T08:58:12.895Z,11.75
2019-06-08T09:00:44.083Z,11.18
2019-06-08T09:03:28.492Z,3.17
2019-06-08T09:05:48.419Z,15.28
2019-06-08T09:08:23.165Z,5.35
2019-06-08T09:10:53.403Z,5.55
2019-06-08T09:13:24.779Z,4.60
2019-06-08T09:15:55.927Z,6.90
2019-06-08T09:18:28.718Z,7.40
2019-06-08T09:21:02.327Z,3.45
2019-06-08T09:23:32.792Z,3.83
2019-06-08T09:26:09.236Z,6.95
2019-06-08T09:28:38.844Z,5.40
2019-06-08T09:31:12.815Z,4.47
2019-06-08T09:33:42.715Z,6.22
2019-06-08T09:36:13.869Z,12.07
2019-06-08T09:38:47.782Z,7.17
2019-06-08T09:41:18.670Z,8.38
2019-06-08T09:43:49.891Z,4.28
2019-06-08T09:46:21.061Z,4.80
2019-06-08T09:48:54.020Z,6.30
2019-06-08T09:51:25.151Z,6.87
2019-06-08T09:54:00.401Z,6.03
2019-06-08T09:56:30.108Z,4.15
2019-06-08T09:59:04.100Z,4.42
2019-06-08T10:01:34.189Z,6.60
2019-06-08T10:04:08.541Z,5.37
2019-06-08T10:06:40.475Z,9.75
2019-06-08T10:09:11.418Z,15.23
2019-06-08T10:11:42.517Z,6.15
2019-06-08T10:14:13.740Z,10.25
2019-06-08T10:16:47.677Z,8.68
2019-06-08T10:19:18.643Z,5.95
2019-06-08T10:21:49.982Z,8.20
2019-06-08T10:24:21.177Z,5.83
2019-06-08T10:26:52.344Z,5.37
2019-06-08T10:29:23.472Z,5.35
2019-06-08T10:31:55.208Z,7.35
2019-06-08T10:34:29.689Z,6.15
2019-06-08T10:37:06.444Z,10.78
2019-06-08T10:39:33.808Z,7.55
2019-06-08T10:42:07.431Z,7.92
2019-06-08T10:44:38.296Z,5.22
2019-06-08T10:47:11.810Z,8.10
2019-06-08T10:49:42.435Z,5.53
2019-06-08T10:52:13.608Z,4.12
2019-06-08T10:54:44.836Z,8.65
2019-06-08T10:57:18.228Z,7.95
2019-06-08T10:59:49.658Z,5.58
2019-06-08T11:02:20.830Z,7.45
2019-06-08T11:04:52.097Z,4.78
2019-06-08T11:07:23.257Z,6.35
2019-06-08T11:09:54.538Z,7.67
2019-06-08T11:12:28.159Z,8.25
2019-06-08T11:14:59.937Z,5.00
2019-06-08T11:17:31.480Z,6.65
2019-06-08T11:20:04.384Z,12.58
2019-06-08T11:22:35.575Z,6.78
2019-06-08T11:25:15.456Z,5.97
2019-06-08T11:27:41.177Z,8.63
2019-06-08T11:30:20.380Z,8.03
2019-06-08T11:32:47.925Z,10.20
2019-06-08T11:35:18.664Z,5.87
2019-06-08T11:37:49.773Z,10.08
2019-06-08T11:40:21.078Z,7.22
2019-06-08T11:42:52.222Z,6.80
2019-06-08T11:45:23.535Z,7.35
2019-06-08T11:47:54.692Z,7.80
2019-06-08T11:50:34.533Z,15.60
2019-06-08T11:53:07.821Z,17.25
2019-06-08T11:55:38.778Z,12.15
2019-06-08T11:58:12.422Z,9.15
2019-06-08T12:01:00.737Z,5.60
2019-06-08T12:03:30.794Z,6.55
2019-06-08T12:06:02.238Z,5.03
2019-06-08T12:08:33.395Z,5.08
2019-06-08T12:11:06.151Z,6.12
2019-06-08T12:13:37.651Z,10.82
2019-06-08T12:16:14.868Z,12.50
2019-06-08T12:18:41.732Z,14.73
2019-06-08T12:21:14.252Z,9.85
2019-06-08T12:23:45.696Z,6.97
2019-06-08T12:26:16.891Z,8.28
2019-06-08T12:28:48.657Z,5.47
2019-06-08T12:31:22.490Z,4.35
2019-06-08T12:33:52.866Z,7.40
2019-06-08T12:36:24.071Z,10.15
2019-06-08T12:38:55.233Z,7.15
2019-06-08T12:41:28.912Z,7.72
2019-06-08T12:43:59.330Z,9.75
2019-06-08T12:46:30.544Z,9.68
2019-06-08T12:49:01.713Z,9.48
2019-06-08T12:51:32.933Z,8.18
2019-06-08T12:54:04.380Z,3.12
2019-06-08T12:56:37.680Z,6.35
2019-06-08T12:59:12.985Z,7.42
2019-06-08T13:01:41.561Z,14.40
2019-06-08T13:04:13.780Z,16.27
2019-06-08T13:06:45.038Z,17.10
2019-06-08T13:09:18.906Z,16.57
2019-06-08T13:11:50.701Z,12.03
2019-06-08T13:14:22.024Z,11.03
2019-06-08T13:16:53.318Z,13.55
2019-06-08T13:19:24.484Z,9.93
2019-06-08T13:21:55.714Z,10.85
2019-06-08T13:24:28.506Z,7.60
2019-06-08T13:26:59.825Z,5.62
2019-06-08T13:29:31.010Z,3.67
2019-06-08T13:32:02.264Z,5.75
2019-06-08T13:34:33.398Z,7.17
2019-06-08T13:37:04.628Z,6.25
2019-06-08T13:39:35.879Z,11.10
2019-06-08T13:42:07.741Z,10.13
2019-06-08T13:44:39.155Z,6.33
2019-06-08T13:47:11.161Z,7.97
2019-06-08T13:49:43.172Z,3.75
2019-06-08T13:52:15.664Z,2.72
2019-06-08T13:54:48.013Z,4.67
2019-06-08T13:57:21.896Z,5.50
2019-06-08T13:59:52.182Z,8.70
2019-06-08T14:02:28.540Z,7.37
2019-06-08T14:04:58.967Z,6.45
2019-06-08T14:07:34.357Z,7.97
2019-06-08T14:10:02.687Z,8.88
2019-06-08T14:12:34.016Z,12.98
2019-06-08T14:15:08.620Z,8.53
2019-06-08T14:17:39.394Z,5.70
2019-06-08T14:20:10.540Z,6.62
2019-06-08T14:22:41.747Z,5.35
2019-06-08T14:25:12.910Z,7.75
2019-06-08T14:27:44.134Z,8.78
2019-06-08T14:30:15.298Z,7.80
2019-06-08T14:32:47.885Z,6.42
2019-06-08T14:35:22.325Z,9.55
2019-06-08T14:37:52.047Z,10.90
2019-06-08T14:40:23.450Z,6.70
2019-06-08T14:42:54.663Z,10.20
2019-06-08T14:45:28.888Z,4.67
2019-06-08T14:47:58.873Z,8.93
2019-06-08T14:50:31.257Z,8.45
2019-06-08T14:53:02.688Z,4.30
2019-06-08T14:55:34.338Z,8.20
2019-06-08T14:58:05.578Z,3.95
2019-06-08T15:00:38.032Z,7.62
2019-06-08T15:03:09.620Z,8.98
2019-06-08T15:05:40.797Z,7.60
2019-06-08T15:08:11.995Z,7.47
2019-06-08T15:10:43.161Z,8.00
2019-06-08T15:13:14.484Z,5.97
2019-06-08T15:15:45.671Z,6.50
2019-06-08T15:18:18.584Z,9.80
2019-06-08T15:20:49.768Z,6.47
2019-06-08T15:23:22.863Z,9.70
2019-06-08T15:25:53.848Z,7.03
2019-06-08T15:28:25.081Z,6.85
2019-06-08T15:30:59.807Z,9.18
2019-06-08T15:33:32.073Z,8.45
2019-06-08T15:36:02.063Z,8.85
2019-06-08T15:38:33.551Z,6.70
2019-06-08T15:41:04.729Z,6.50
2019-06-08T15:43:37.652Z,5.92
2019-06-08T15:46:08.858Z,7.72
2019-06-08T15:48:40.114Z,5.70
2019-06-08T15:51:11.281Z,7.45
2019-06-08T15:53:42.515Z,7.00
2019-06-08T15:56:13.598Z,7.75
2019-06-08T15:58:44.827Z,11.75
2019-06-08T16:01:16.008Z,8.75
2019-06-08T16:03:47.228Z,6.33
2019-06-08T16:06:18.481Z,6.25
2019-06-08T16:08:49.682Z,5.90
2019-06-08T16:11:20.834Z,10.63
2019-06-08T16:13:52.135Z,9.38
2019-06-08T16:16:23.312Z,11.93
2019-06-08T16:18:54.458Z,8.48
2019-06-08T16:21:25.641Z,7.87
2019-06-08T16:23:56.872Z,11.25
2019-06-08T16:26:28.014Z,9.63
2019-06-08T16:28:59.286Z,6.85
2019-06-08T16:31:31.073Z,5.28
2019-06-08T16:34:02.359Z,8.35
2019-06-08T16:36:33.549Z,6.08
2019-06-08T16:39:07.469Z,11.35
2019-06-08T16:41:38.604Z,8.20
2019-06-08T16:44:09.832Z,8.83
2019-06-08T16:46:40.993Z,8.70
2019-06-08T16:49:12.221Z,12.53
2019-06-08T16:51:43.375Z,9.65
2019-06-08T16:54:14.579Z,11.00
2019-06-08T16:56:45.765Z,9.83
2019-06-08T16:59:16.981Z,11.45
2019-06-08T17:01:48.147Z,12.23
2019-06-08T17:04:19.319Z,5.92
2019-06-08T17:06:50.510Z,8.05
2019-06-08T17:09:21.744Z,11.48
2019-06-08T17:11:53.038Z,10.63
2019-06-08T17:14:25.275Z,7.15
2019-06-08T17:16:56.604Z,6.40
2019-06-08T17:19:27.870Z,6.50
2019-06-08T17:21:59.037Z,14.47
2019-06-08T17:24:30.391Z,22.77
2019-06-08T17:27:01.522Z,12.45
2019-06-08T17:29:32.846Z,9.43
2019-06-08T17:32:04.034Z,10.25
2019-06-08T17:34:36.526Z,9.68
2019-06-08T17:37:07.860Z,12.33
2019-06-08T17:39:40.133Z,15.72
2019-06-08T17:42:11.432Z,11.30
2019-06-08T17:44:42.758Z,11.90
2019-06-08T17:47:14.076Z,13.28
2019-06-08T17:49:45.332Z,10.25
2019-06-08T17:52:16.507Z,14.75
2019-06-08T17:54:47.755Z,13.40
2019-06-08T17:57:18.918Z,23.85
2019-06-08T17:59:50.077Z,23.77
2019-06-08T18:02:27.983Z,14.85
2019-06-08T18:04:54.166Z,20.70
2019-06-08T18:07:27.622Z,16.25
2019-06-08T18:09:58.242Z,13.28
2019-06-08T18:12:29.411Z,10.90
2019-06-08T18:15:00.731Z,8.30
2019-06-08T18:17:32.223Z,7.60
2019-06-08T18:20:04.443Z,8.08
2019-06-08T18:22:39.083Z,9.35
2019-06-08T18:25:08.645Z,5.37
2019-06-08T18:27:42.389Z,10.23
2019-06-08T18:30:15.436Z,7.97
2019-06-08T18:32:48.524Z,6.40
2019-06-08T18:35:20.407Z,9.90
2019-06-08T18:37:52.987Z,4.45
2019-06-08T18:40:24.227Z,8.23
2019-06-08T18:42:57.677Z,5.33
2019-06-08T18:45:29.802Z,9.95
2019-06-08T18:48:00.993Z,6.78
2019-06-08T18:50:32.525Z,5.05
2019-06-08T18:53:03.688Z,2.98
2019-06-08T18:55:36.307Z,10.48
2019-06-08T18:58:17.617Z,9.60
2019-06-08T19:00:43.398Z,7.80
2019-06-08T19:03:14.491Z,5.62
2019-06-08T19:05:49.422Z,8.93
2019-06-08T19:08:19.478Z,11.15
2019-06-08T19:10:50.695Z,5.92
2019-06-08T19:13:21.858Z,5.30
2019-06-08T19:15:53.262Z,9.03
2019-06-08T19:18:24.552Z,4.30
2019-06-08T19:20:57.653Z,7.85
2019-06-08T19:23:28.624Z,9.88
2019-06-08T19:26:00.480Z,4.92
2019-06-08T19:28:36.367Z,4.90
2019-06-08T19:31:04.777Z,7.30
2019-06-08T19:33:35.955Z,6.70
2019-06-08T19:36:07.753Z,7.75
2019-06-08T19:38:40.045Z,8.03
2019-06-08T19:41:11.950Z,8.28
2019-06-08T19:43:43.622Z,13.18
2019-06-08T19:46:18.077Z,10.53
2019-06-08T19:48:54.572Z,12.80
2019-06-08T19:51:21.800Z,6.62
2019-06-08T19:53:54.961Z,10.30
2019-06-08T19:56:28.232Z,12.33
2019-06-08T19:59:03.984Z,9.35
2019-06-08T20:01:31.804Z,12.43
2019-06-08T20:04:07.270Z,11.30
2019-06-08T20:06:38.084Z,12.10
2019-06-08T20:09:09.670Z,16.37
2019-06-08T20:11:45.663Z,14.47
2019-06-08T20:14:13.845Z,12.78
2019-06-08T20:16:48.099Z,12.03
2019-06-08T20:19:18.332Z,8.70
2019-06-08T20:21:51.469Z,9.85
2019-06-08T20:24:22.409Z,10.05
2019-06-08T20:26:54.817Z,7.33
2019-06-08T20:29:28.332Z,6.30
2019-06-08T20:31:59.001Z,4.83
2019-06-08T20:34:30.178Z,6.08
2019-06-08T20:37:02.111Z,6.12
2019-06-08T20:39:33.315Z,9.20
2019-06-08T20:42:04.519Z,7.22
2019-06-08T20:44:37.667Z,7.17
2019-06-08T20:47:08.612Z,6.92
2019-06-08T20:49:39.734Z,6.60
2019-06-08T20:52:10.980Z,4.80
2019-06-08T20:54:42.754Z,6.17
2019-06-08T20:57:14.050Z,5.62
2019-06-08T20:59:45.669Z,9.05
2019-06-08T21:02:17.818Z,6.17
2019-06-08T21:04:53.125Z,6.40
2019-06-08T21:07:23.661Z,5.45
2019-06-08T21:09:57.490Z,9.65
2019-06-08T21:12:28.372Z,7.00
2019-06-08T21:14:59.631Z,7.55
2019-06-08T21:17:30.911Z,9.00
2019-06-08T21:20:02.125Z,13.18
2019-06-08T21:22:33.615Z,10.58
2019-06-08T21:25:08.716Z,11.30
2019-06-08T21:27:39.198Z,9.10
2019-06-08T21:30:20.592Z,7.95
2019-06-08T21:32:43.700Z,5.03
2019-06-08T21:35:14.924Z,4.67
2019-06-08T21:37:50.681Z,8.68
2019-06-08T21:40:19.099Z,5.92
2019-06-08T21:42:52.146Z,6.92
2019-06-08T21:45:23.153Z,6.75
2019-06-08T21:47:54.520Z,6.40
2019-06-08T21:50:27.553Z,11.88
2019-06-08T21:53:00.461Z,6.95
2019-06-08T21:55:31.795Z,8.70
2019-06-08T21:58:03.016Z,6.92
2019-06-08T22:00:40.578Z,12.18
2019-06-08T22:03:08.106Z,9.48
2019-06-08T22:05:39.485Z,10.53
2019-06-08T22:08:10.676Z,10.00
2019-06-08T22:10:41.925Z,8.28
2019-06-08T22:13:13.186Z,14.65
2019-06-08T22:15:44.610Z,15.18
2019-06-08T22:18:18.311Z,15.80
2019-06-08T22:20:48.865Z,11.63
2019-06-08T22:23:20.088Z,13.25
2019-06-08T22:25:52.443Z,14.47
2019-06-08T22:28:24.154Z,12.63
2019-06-08T22:30:57.775Z,13.53
2019-06-08T22:33:28.213Z,12.65
2019-06-08T22:35:59.341Z,8.30
2019-06-08T22:38:30.533Z,9.08
2019-06-08T22:41:02.349Z,14.38
2019-06-08T22:43:37.256Z,10.82
2019-06-08T22:46:08.355Z,14.15
2019-06-08T22:48:39.854Z,12.47
2019-06-08T22:51:11.067Z,9.38
2019-06-08T22:53:42.268Z,7.72
2019-06-08T22:56:13.432Z,9.75
2019-06-08T22:58:44.550Z,14.83
2019-06-08T23:01:18.184Z,10.75
2019-06-08T23:03:48.596Z,14.10
2019-06-08T23:06:20.632Z,14.45
2019-06-08T23:08:51.835Z,18.57
2019-06-08T23:11:23.048Z,17.35
2019-06-08T23:13:54.353Z,14.15
2019-06-08T23:16:27.266Z,14.63
2019-06-08T23:19:00.256Z,14.63
2019-06-08T23:21:31.435Z,18.02
2019-06-08T23:24:04.043Z,17.82
2019-06-08T23:26:37.164Z,16.80
2019-06-08T23:29:09.637Z,16.05
2019-06-08T23:31:40.955Z,14.47
2019-06-08T23:34:12.196Z,14.98
2019-06-08T23:36:57.531Z,18.50
2019-06-08T23:39:17.975Z,15.10
2019-06-08T23:41:49.248Z,15.98
2019-06-08T23:44:20.491Z,15.75
2019-06-08T23:46:51.657Z,17.65
2019-06-08T23:49:22.894Z,19.98
2019-06-08T23:51:54.034Z,20.08
2019-06-08T23:54:27.866Z,18.02
2019-06-08T23:56:58.537Z,15.93
2019-06-08T23:59:29.954Z,22.93
